sensor_id;sensor_type;location;lat;lon;timestamp;P1;durP1;ratioP1;P2;durP2;ratioP2
43857;SDS011;29507;51.284;5.758;2022-10-30T00:02:25;11.07;;;4.50;;
43857;SDS011;29507;51.284;5.758;2022-10-30T00:04:51;14.13;;;4.40;;
43857;SDS011;29507;51.284;5.758;2022-10-30T00:07:16;12.98;;;4.25;;
43857;SDS011;29507;51.284;5.758;2022-10-30T00:09:42;18.67;;;4.85;;
43857;SDS011;29507;51.284;5.758;2022-10-30T00:12:07;10.90;;;3.90;;
43857;SDS011;29507;51.284;5.758;2022-10-30T00:14:33;15.63;;;3.65;;
43857;SDS011;29507;51.284;5.758;2022-10-30T00:16:58;8.25;;;4.25;;
43857;SDS011;29507;51.284;5.758;2022-10-30T00:19:24;13.63;;;4.72;;
43857;SDS011;29507;51.284;5.758;2022-10-30T00:21:49;13.40;;;4.45;;
43857;SDS011;29507;51.284;5.758;2022-10-30T00:24:15;16.30;;;5.20;;
43857;SDS011;29507;51.284;5.758;2022-10-30T00:26:40;12.50;;;4.43;;
43857;SDS011;29507;51.284;5.758;2022-10-30T00:29:06;9.60;;;4.28;;
43857;SDS011;29507;51.284;5.758;2022-10-30T00:31:31;15.25;;;4.80;;
43857;SDS011;29507;51.284;5.758;2022-10-30T00:33:57;11.25;;;4.45;;
43857;SDS011;29507;51.284;5.758;2022-10-30T00:36:22;11.95;;;4.68;;
43857;SDS011;29507;51.284;5.758;2022-10-30T00:38:48;13.07;;;4.60;;
43857;SDS011;29507;51.284;5.758;2022-10-30T00:41:15;9.40;;;4.28;;
43857;SDS011;29507;51.284;5.758;2022-10-30T00:43:46;13.00;;;4.88;;
43857;SDS011;29507;51.284;5.758;2022-10-30T00:46:17;9.40;;;4.35;;
43857;SDS011;29507;51.284;5.758;2022-10-30T00:48:56;15.70;;;5.10;;
43857;SDS011;29507;51.284;5.758;2022-10-30T00:51:40;10.75;;;5.13;;
43857;SDS011;29507;51.284;5.758;2022-10-30T00:54:10;15.10;;;5.00;;
43857;SDS011;29507;51.284;5.758;2022-10-30T00:56:38;10.85;;;4.40;;
43857;SDS011;29507;51.284;5.758;2022-10-30T00:59:06;12.43;;;5.40;;
43857;SDS011;29507;51.284;5.758;2022-10-30T01:01:36;12.60;;;5.72;;
43857;SDS011;29507;51.284;5.758;2022-10-30T01:04:04;12.13;;;4.43;;
43857;SDS011;29507;51.284;5.758;2022-10-30T01:06:34;10.63;;;4.07;;
43857;SDS011;29507;51.284;5.758;2022-10-30T01:09:03;10.38;;;5.07;;
43857;SDS011;29507;51.284;5.758;2022-10-30T01:11:29;9.85;;;5.13;;
43857;SDS011;29507;51.284;5.758;2022-10-30T01:13:56;12.32;;;4.65;;
43857;SDS011;29507;51.284;5.758;2022-10-30T01:24:57;10.70;;;4.80;;
43857;SDS011;29507;51.284;5.758;2022-10-30T01:35:49;13.70;;;4.95;;
43857;SDS011;29507;51.284;5.758;2022-10-30T01:38:28;10.30;;;5.22;;
43857;SDS011;29507;51.284;5.758;2022-10-30T01:40:59;10.57;;;4.68;;
43857;SDS011;29507;51.284;5.758;2022-10-30T01:43:25;19.58;;;5.40;;
43857;SDS011;29507;51.284;5.758;2022-10-30T02:02:32;9.48;;;4.97;;
43857;SDS011;29507;51.284;5.758;2022-10-30T02:04:58;15.70;;;5.50;;
43857;SDS011;29507;51.284;5.758;2022-10-30T02:07:24;15.00;;;5.82;;
43857;SDS011;29507;51.284;5.758;2022-10-30T02:09:51;12.75;;;4.75;;
43857;SDS011;29507;51.284;5.758;2022-10-30T02:12:18;15.10;;;5.50;;
43857;SDS011;29507;51.284;5.758;2022-10-30T02:14:46;11.70;;;4.97;;
43857;SDS011;29507;51.284;5.758;2022-10-30T02:17:16;10.85;;;4.85;;
43857;SDS011;29507;51.284;5.758;2022-10-30T02:19:42;11.25;;;5.35;;
43857;SDS011;29507;51.284;5.758;2022-10-30T02:22:09;10.52;;;5.32;;
43857;SDS011;29507;51.284;5.758;2022-10-30T02:24:35;12.00;;;5.60;;
43857;SDS011;29507;51.284;5.758;2022-10-30T02:27:01;17.08;;;5.75;;
43857;SDS011;29507;51.284;5.758;2022-10-30T02:29:27;15.35;;;6.18;;
43857;SDS011;29507;51.284;5.758;2022-10-30T02:31:52;12.63;;;5.93;;
43857;SDS011;29507;51.284;5.758;2022-10-30T02:34:18;14.80;;;5.47;;
43857;SDS011;29507;51.284;5.758;2022-10-30T02:36:44;12.45;;;4.45;;
43857;SDS011;29507;51.284;5.758;2022-10-30T02:39:10;8.98;;;4.65;;
43857;SDS011;29507;51.284;5.758;2022-10-30T02:41:35;12.20;;;5.57;;
43857;SDS011;29507;51.284;5.758;2022-10-30T02:44:01;16.27;;;6.55;;
43857;SDS011;29507;51.284;5.758;2022-10-30T02:46:27;10.95;;;5.57;;
43857;SDS011;29507;51.284;5.758;2022-10-30T02:48:53;14.02;;;5.95;;
43857;SDS011;29507;51.284;5.758;2022-10-30T02:51:18;9.20;;;5.15;;
43857;SDS011;29507;51.284;5.758;2022-10-30T02:53:44;10.32;;;5.10;;
43857;SDS011;29507;51.284;5.758;2022-10-30T02:56:11;10.20;;;4.90;;
43857;SDS011;29507;51.284;5.758;2022-10-30T02:58:38;13.88;;;5.72;;
43857;SDS011;29507;51.284;5.758;2022-10-30T03:01:05;12.50;;;4.82;;
43857;SDS011;29507;51.284;5.758;2022-10-30T03:03:42;11.05;;;5.18;;
43857;SDS011;29507;51.284;5.758;2022-10-30T03:06:09;14.73;;;6.32;;
43857;SDS011;29507;51.284;5.758;2022-10-30T03:08:36;10.95;;;5.32;;
43857;SDS011;29507;51.284;5.758;2022-10-30T03:11:03;13.07;;;5.78;;
43857;SDS011;29507;51.284;5.758;2022-10-30T03:13:29;14.80;;;6.05;;
43857;SDS011;29507;51.284;5.758;2022-10-30T03:16:03;13.93;;;5.03;;
43857;SDS011;29507;51.284;5.758;2022-10-30T03:18:31;14.15;;;6.40;;
43857;SDS011;29507;51.284;5.758;2022-10-30T03:21:00;13.70;;;5.38;;
43857;SDS011;29507;51.284;5.758;2022-10-30T03:23:27;18.13;;;6.07;;
43857;SDS011;29507;51.284;5.758;2022-10-30T03:25:55;11.18;;;5.72;;
43857;SDS011;29507;51.284;5.758;2022-10-30T03:28:22;12.25;;;5.18;;
43857;SDS011;29507;51.284;5.758;2022-10-30T03:30:49;12.27;;;5.72;;
43857;SDS011;29507;51.284;5.758;2022-10-30T03:33:15;14.38;;;5.70;;
43857;SDS011;29507;51.284;5.758;2022-10-30T03:35:44;16.70;;;5.47;;
43857;SDS011;29507;51.284;5.758;2022-10-30T03:38:10;9.55;;;5.38;;
43857;SDS011;29507;51.284;5.758;2022-10-30T03:40:36;13.00;;;5.40;;
43857;SDS011;29507;51.284;5.758;2022-10-30T03:43:02;13.93;;;6.10;;
43857;SDS011;29507;51.284;5.758;2022-10-30T03:45:28;14.60;;;6.07;;
43857;SDS011;29507;51.284;5.758;2022-10-30T03:47:54;18.02;;;5.93;;
43857;SDS011;29507;51.284;5.758;2022-10-30T03:50:19;14.77;;;6.47;;
43857;SDS011;29507;51.284;5.758;2022-10-30T03:52:45;12.40;;;5.70;;
43857;SDS011;29507;51.284;5.758;2022-10-30T03:55:10;18.75;;;6.38;;
43857;SDS011;29507;51.284;5.758;2022-10-30T03:57:36;13.68;;;6.47;;
43857;SDS011;29507;51.284;5.758;2022-10-30T04:00:03;17.55;;;6.65;;
43857;SDS011;29507;51.284;5.758;2022-10-30T04:02:29;10.13;;;6.13;;
43857;SDS011;29507;51.284;5.758;2022-10-30T04:04:55;16.48;;;6.65;;
43857;SDS011;29507;51.284;5.758;2022-10-30T04:07:20;13.82;;;5.85;;
43857;SDS011;29507;51.284;5.758;2022-10-30T04:09:46;14.32;;;6.75;;
43857;SDS011;29507;51.284;5.758;2022-10-30T04:12:11;14.98;;;6.07;;
43857;SDS011;29507;51.284;5.758;2022-10-30T04:14:37;14.23;;;5.68;;
43857;SDS011;29507;51.284;5.758;2022-10-30T04:17:03;11.88;;;5.85;;
43857;SDS011;29507;51.284;5.758;2022-10-30T04:19:30;11.48;;;6.40;;
43857;SDS011;29507;51.284;5.758;2022-10-30T04:21:56;16.92;;;6.53;;
43857;SDS011;29507;51.284;5.758;2022-10-30T04:24:21;14.65;;;6.10;;
43857;SDS011;29507;51.284;5.758;2022-10-30T04:26:47;17.65;;;6.47;;
43857;SDS011;29507;51.284;5.758;2022-10-30T04:29:13;14.40;;;6.18;;
43857;SDS011;29507;51.284;5.758;2022-10-30T04:31:38;17.55;;;6.50;;
43857;SDS011;29507;51.284;5.758;2022-10-30T04:34:04;17.75;;;6.70;;
43857;SDS011;29507;51.284;5.758;2022-10-30T04:36:29;11.13;;;6.03;;
43857;SDS011;29507;51.284;5.758;2022-10-30T04:38:58;15.82;;;6.38;;
43857;SDS011;29507;51.284;5.758;2022-10-30T04:41:24;17.83;;;6.30;;
43857;SDS011;29507;51.284;5.758;2022-10-30T04:43:50;15.10;;;6.88;;
43857;SDS011;29507;51.284;5.758;2022-10-30T04:46:16;13.88;;;5.97;;
43857;SDS011;29507;51.284;5.758;2022-10-30T04:48:42;17.63;;;6.53;;
43857;SDS011;29507;51.284;5.758;2022-10-30T04:51:08;16.23;;;6.65;;
43857;SDS011;29507;51.284;5.758;2022-10-30T04:53:35;17.98;;;7.13;;
43857;SDS011;29507;51.284;5.758;2022-10-30T04:56:02;11.45;;;6.15;;
43857;SDS011;29507;51.284;5.758;2022-10-30T04:58:28;12.13;;;5.90;;
43857;SDS011;29507;51.284;5.758;2022-10-30T05:00:54;14.27;;;5.70;;
43857;SDS011;29507;51.284;5.758;2022-10-30T05:03:21;13.68;;;6.40;;
43857;SDS011;29507;51.284;5.758;2022-10-30T05:05:54;13.27;;;5.80;;
43857;SDS011;29507;51.284;5.758;2022-10-30T05:08:28;9.88;;;5.47;;
43857;SDS011;29507;51.284;5.758;2022-10-30T05:10:54;13.90;;;6.75;;
43857;SDS011;29507;51.284;5.758;2022-10-30T05:13:20;18.88;;;6.45;;
43857;SDS011;29507;51.284;5.758;2022-10-30T05:15:46;12.27;;;5.25;;
43857;SDS011;29507;51.284;5.758;2022-10-30T05:18:11;12.35;;;6.05;;
43857;SDS011;29507;51.284;5.758;2022-10-30T05:20:37;14.00;;;6.97;;
43857;SDS011;29507;51.284;5.758;2022-10-30T05:23:03;14.70;;;6.07;;
43857;SDS011;29507;51.284;5.758;2022-10-30T05:25:29;14.68;;;6.05;;
43857;SDS011;29507;51.284;5.758;2022-10-30T05:27:58;11.90;;;4.97;;
43857;SDS011;29507;51.284;5.758;2022-10-30T05:30:28;11.38;;;5.45;;
43857;SDS011;29507;51.284;5.758;2022-10-30T05:32:59;17.38;;;6.60;;
43857;SDS011;29507;51.284;5.758;2022-10-30T05:35:29;16.33;;;6.60;;
43857;SDS011;29507;51.284;5.758;2022-10-30T05:37:56;13.07;;;6.05;;
43857;SDS011;29507;51.284;5.758;2022-10-30T05:40:22;12.63;;;5.97;;
43857;SDS011;29507;51.284;5.758;2022-10-30T05:42:48;11.38;;;5.70;;
43857;SDS011;29507;51.284;5.758;2022-10-30T05:45:15;11.98;;;5.88;;
43857;SDS011;29507;51.284;5.758;2022-10-30T05:47:41;10.23;;;5.80;;
43857;SDS011;29507;51.284;5.758;2022-10-30T05:50:07;14.52;;;5.78;;
43857;SDS011;29507;51.284;5.758;2022-10-30T05:52:34;11.40;;;5.10;;
43857;SDS011;29507;51.284;5.758;2022-10-30T05:54:59;10.93;;;6.55;;
43857;SDS011;29507;51.284;5.758;2022-10-30T05:57:28;13.45;;;5.78;;
43857;SDS011;29507;51.284;5.758;2022-10-30T05:59:57;15.50;;;6.05;;
43857;SDS011;29507;51.284;5.758;2022-10-30T06:02:22;14.40;;;6.32;;
43857;SDS011;29507;51.284;5.758;2022-10-30T06:04:48;15.60;;;6.72;;
43857;SDS011;29507;51.284;5.758;2022-10-30T06:07:13;14.68;;;6.22;;
43857;SDS011;29507;51.284;5.758;2022-10-30T06:09:39;14.57;;;6.82;;
43857;SDS011;29507;51.284;5.758;2022-10-30T06:12:05;16.33;;;5.72;;
43857;SDS011;29507;51.284;5.758;2022-10-30T06:14:30;13.75;;;5.78;;
43857;SDS011;29507;51.284;5.758;2022-10-30T06:16:56;18.15;;;5.00;;
43857;SDS011;29507;51.284;5.758;2022-10-30T06:19:21;16.15;;;5.72;;
43857;SDS011;29507;51.284;5.758;2022-10-30T06:21:47;13.25;;;5.93;;
43857;SDS011;29507;51.284;5.758;2022-10-30T06:24:13;13.60;;;5.95;;
43857;SDS011;29507;51.284;5.758;2022-10-30T06:26:38;12.30;;;5.20;;
43857;SDS011;29507;51.284;5.758;2022-10-30T06:29:04;11.15;;;5.55;;
43857;SDS011;29507;51.284;5.758;2022-10-30T06:31:30;12.15;;;5.70;;
43857;SDS011;29507;51.284;5.758;2022-10-30T06:33:56;14.98;;;5.78;;
43857;SDS011;29507;51.284;5.758;2022-10-30T06:36:21;9.85;;;4.93;;
43857;SDS011;29507;51.284;5.758;2022-10-30T06:38:47;10.73;;;5.60;;
43857;SDS011;29507;51.284;5.758;2022-10-30T06:41:12;11.18;;;4.82;;
43857;SDS011;29507;51.284;5.758;2022-10-30T06:43:38;12.55;;;5.55;;
43857;SDS011;29507;51.284;5.758;2022-10-30T06:46:04;14.32;;;6.05;;
43857;SDS011;29507;51.284;5.758;2022-10-30T06:48:29;15.43;;;6.28;;
43857;SDS011;29507;51.284;5.758;2022-10-30T06:50:56;14.40;;;6.63;;
43857;SDS011;29507;51.284;5.758;2022-10-30T06:53:23;18.60;;;7.13;;
43857;SDS011;29507;51.284;5.758;2022-10-30T06:56:01;15.52;;;6.18;;
43857;SDS011;29507;51.284;5.758;2022-10-30T06:58:27;18.23;;;6.18;;
43857;SDS011;29507;51.284;5.758;2022-10-30T07:00:53;17.20;;;6.80;;
43857;SDS011;29507;51.284;5.758;2022-10-30T07:03:19;14.57;;;6.13;;
43857;SDS011;29507;51.284;5.758;2022-10-30T07:05:45;11.75;;;5.85;;
43857;SDS011;29507;51.284;5.758;2022-10-30T07:08:11;13.93;;;6.85;;
43857;SDS011;29507;51.284;5.758;2022-10-30T07:10:37;14.77;;;6.20;;
43857;SDS011;29507;51.284;5.758;2022-10-30T07:13:02;15.38;;;6.78;;
43857;SDS011;29507;51.284;5.758;2022-10-30T07:15:28;15.35;;;7.18;;
43857;SDS011;29507;51.284;5.758;2022-10-30T07:17:54;13.73;;;6.88;;
43857;SDS011;29507;51.284;5.758;2022-10-30T07:20:21;16.88;;;6.90;;
43857;SDS011;29507;51.284;5.758;2022-10-30T07:22:48;17.20;;;6.90;;
43857;SDS011;29507;51.284;5.758;2022-10-30T07:25:13;15.10;;;7.28;;
43857;SDS011;29507;51.284;5.758;2022-10-30T07:27:49;15.63;;;7.20;;
43857;SDS011;29507;51.284;5.758;2022-10-30T07:30:16;12.23;;;6.22;;
43857;SDS011;29507;51.284;5.758;2022-10-30T07:32:44;20.90;;;7.87;;
43857;SDS011;29507;51.284;5.758;2022-10-30T07:35:10;15.65;;;7.50;;
43857;SDS011;29507;51.284;5.758;2022-10-30T07:37:37;12.20;;;6.28;;
43857;SDS011;29507;51.284;5.758;2022-10-30T07:40:03;11.88;;;6.68;;
43857;SDS011;29507;51.284;5.758;2022-10-30T07:42:31;13.90;;;5.93;;
43857;SDS011;29507;51.284;5.758;2022-10-30T07:44:57;12.13;;;6.00;;
43857;SDS011;29507;51.284;5.758;2022-10-30T07:47:22;16.67;;;7.63;;
43857;SDS011;29507;51.284;5.758;2022-10-30T07:49:48;15.00;;;7.35;;
43857;SDS011;29507;51.284;5.758;2022-10-30T07:52:14;14.73;;;6.45;;
43857;SDS011;29507;51.284;5.758;2022-10-30T07:54:39;15.27;;;6.50;;
43857;SDS011;29507;51.284;5.758;2022-10-30T07:57:05;12.43;;;6.35;;
43857;SDS011;29507;51.284;5.758;2022-10-30T07:59:30;18.85;;;6.72;;
43857;SDS011;29507;51.284;5.758;2022-10-30T08:01:56;12.07;;;6.13;;
43857;SDS011;29507;51.284;5.758;2022-10-30T08:04:21;16.30;;;7.20;;
43857;SDS011;29507;51.284;5.758;2022-10-30T08:06:47;11.88;;;6.13;;
43857;SDS011;29507;51.284;5.758;2022-10-30T08:09:13;10.90;;;6.18;;
43857;SDS011;29507;51.284;5.758;2022-10-30T08:11:38;12.00;;;6.05;;
43857;SDS011;29507;51.284;5.758;2022-10-30T08:14:04;15.52;;;5.00;;
43857;SDS011;29507;51.284;5.758;2022-10-30T08:16:29;14.50;;;6.00;;
43857;SDS011;29507;51.284;5.758;2022-10-30T08:18:55;14.55;;;6.78;;
43857;SDS011;29507;51.284;5.758;2022-10-30T08:21:20;14.23;;;5.03;;
43857;SDS011;29507;51.284;5.758;2022-10-30T08:23:46;9.30;;;4.43;;
43857;SDS011;29507;51.284;5.758;2022-10-30T08:26:12;11.32;;;4.88;;
43857;SDS011;29507;51.284;5.758;2022-10-30T08:28:38;13.55;;;4.43;;
43857;SDS011;29507;51.284;5.758;2022-10-30T08:31:04;11.07;;;4.78;;
43857;SDS011;29507;51.284;5.758;2022-10-30T08:33:30;14.05;;;5.78;;
43857;SDS011;29507;51.284;5.758;2022-10-30T08:35:56;10.70;;;5.32;;
43857;SDS011;29507;51.284;5.758;2022-10-30T08:38:23;14.48;;;5.03;;
43857;SDS011;29507;51.284;5.758;2022-10-30T08:40:49;15.20;;;5.65;;
43857;SDS011;29507;51.284;5.758;2022-10-30T08:43:15;16.25;;;4.95;;
43857;SDS011;29507;51.284;5.758;2022-10-30T08:45:41;10.38;;;4.70;;
43857;SDS011;29507;51.284;5.758;2022-10-30T08:48:08;10.52;;;4.10;;
43857;SDS011;29507;51.284;5.758;2022-10-30T08:50:36;12.45;;;5.00;;
43857;SDS011;29507;51.284;5.758;2022-10-30T08:53:02;12.48;;;5.55;;
43857;SDS011;29507;51.284;5.758;2022-10-30T08:55:30;9.43;;;4.15;;
43857;SDS011;29507;51.284;5.758;2022-10-30T08:57:56;14.75;;;4.28;;
43857;SDS011;29507;51.284;5.758;2022-10-30T09:00:22;18.30;;;5.25;;
43857;SDS011;29507;51.284;5.758;2022-10-30T09:02:48;13.23;;;4.75;;
43857;SDS011;29507;51.284;5.758;2022-10-30T09:05:13;10.40;;;4.50;;
43857;SDS011;29507;51.284;5.758;2022-10-30T09:07:39;12.68;;;4.55;;
43857;SDS011;29507;51.284;5.758;2022-10-30T09:10:05;12.80;;;5.15;;
43857;SDS011;29507;51.284;5.758;2022-10-30T09:12:31;14.77;;;4.45;;
43857;SDS011;29507;51.284;5.758;2022-10-30T09:14:56;9.90;;;4.30;;
43857;SDS011;29507;51.284;5.758;2022-10-30T09:17:22;10.13;;;4.45;;
43857;SDS011;29507;51.284;5.758;2022-10-30T09:19:48;9.80;;;4.43;;
43857;SDS011;29507;51.284;5.758;2022-10-30T09:22:13;8.23;;;4.18;;
43857;SDS011;29507;51.284;5.758;2022-10-30T09:24:39;12.10;;;4.95;;
43857;SDS011;29507;51.284;5.758;2022-10-30T09:27:05;10.05;;;3.90;;
43857;SDS011;29507;51.284;5.758;2022-10-30T09:29:31;12.88;;;4.47;;
43857;SDS011;29507;51.284;5.758;2022-10-30T09:31:57;8.25;;;4.32;;
43857;SDS011;29507;51.284;5.758;2022-10-30T09:34:24;9.27;;;4.43;;
43857;SDS011;29507;51.284;5.758;2022-10-30T09:36:51;9.40;;;4.53;;
43857;SDS011;29507;51.284;5.758;2022-10-30T09:39:16;14.60;;;4.10;;
43857;SDS011;29507;51.284;5.758;2022-10-30T09:47:21;12.88;;;3.70;;
43857;SDS011;29507;51.284;5.758;2022-10-30T09:50:12;10.63;;;3.70;;
43857;SDS011;29507;51.284;5.758;2022-10-30T10:08:47;13.45;;;4.03;;
43857;SDS011;29507;51.284;5.758;2022-10-30T10:11:23;12.13;;;4.35;;
43857;SDS011;29507;51.284;5.758;2022-10-30T10:13:55;12.70;;;4.40;;
43857;SDS011;29507;51.284;5.758;2022-10-30T10:16:42;9.18;;;3.95;;
43857;SDS011;29507;51.284;5.758;2022-10-30T10:19:18;8.07;;;3.95;;
43857;SDS011;29507;51.284;5.758;2022-10-30T10:21:54;9.77;;;4.28;;
43857;SDS011;29507;51.284;5.758;2022-10-30T10:24:24;11.00;;;4.05;;
43857;SDS011;29507;51.284;5.758;2022-10-30T10:38:02;9.25;;;4.50;;
43857;SDS011;29507;51.284;5.758;2022-10-30T10:40:56;11.80;;;4.20;;
43857;SDS011;29507;51.284;5.758;2022-10-30T10:46:36;13.07;;;4.72;;
43857;SDS011;29507;51.284;5.758;2022-10-30T10:51:38;13.38;;;4.63;;
43857;SDS011;29507;51.284;5.758;2022-10-30T10:56:40;11.43;;;3.40;;
43857;SDS011;29507;51.284;5.758;2022-10-30T10:59:12;12.20;;;3.70;;
43857;SDS011;29507;51.284;5.758;2022-10-30T11:01:57;13.43;;;3.47;;
43857;SDS011;29507;51.284;5.758;2022-10-30T11:04:44;9.35;;;3.95;;
43857;SDS011;29507;51.284;5.758;2022-10-30T11:09:50;13.45;;;4.00;;
43857;SDS011;29507;51.284;5.758;2022-10-30T11:12:22;11.35;;;3.72;;
43857;SDS011;29507;51.284;5.758;2022-10-30T11:15:00;9.98;;;3.45;;
43857;SDS011;29507;51.284;5.758;2022-10-30T11:17:56;7.18;;;3.38;;
43857;SDS011;29507;51.284;5.758;2022-10-30T11:20:33;13.90;;;4.15;;
43857;SDS011;29507;51.284;5.758;2022-10-30T11:23:00;13.02;;;3.95;;
43857;SDS011;29507;51.284;5.758;2022-10-30T11:25:32;10.23;;;3.60;;
43857;SDS011;29507;51.284;5.758;2022-10-30T11:27:59;8.43;;;3.47;;
43857;SDS011;29507;51.284;5.758;2022-10-30T11:30:28;9.73;;;3.50;;
43857;SDS011;29507;51.284;5.758;2022-10-30T11:32:55;13.20;;;4.57;;
43857;SDS011;29507;51.284;5.758;2022-10-30T11:35:22;10.82;;;4.35;;
43857;SDS011;29507;51.284;5.758;2022-10-30T11:37:48;8.65;;;3.33;;
43857;SDS011;29507;51.284;5.758;2022-10-30T11:40:17;9.50;;;3.60;;
43857;SDS011;29507;51.284;5.758;2022-10-30T11:42:54;9.32;;;3.20;;
43857;SDS011;29507;51.284;5.758;2022-10-30T11:45:24;11.50;;;4.82;;
43857;SDS011;29507;51.284;5.758;2022-10-30T11:47:52;10.02;;;3.83;;
43857;SDS011;29507;51.284;5.758;2022-10-30T11:50:21;11.65;;;3.85;;
43857;SDS011;29507;51.284;5.758;2022-10-30T11:52:49;11.50;;;3.45;;
43857;SDS011;29507;51.284;5.758;2022-10-30T11:57:56;8.52;;;4.20;;
43857;SDS011;29507;51.284;5.758;2022-10-30T12:00:30;14.73;;;4.63;;
43857;SDS011;29507;51.284;5.758;2022-10-30T12:02:57;9.60;;;3.55;;
43857;SDS011;29507;51.284;5.758;2022-10-30T12:07:53;12.70;;;3.75;;
43857;SDS011;29507;51.284;5.758;2022-10-30T12:10:46;6.97;;;3.38;;
43857;SDS011;29507;51.284;5.758;2022-10-30T12:13:21;12.32;;;3.88;;
43857;SDS011;29507;51.284;5.758;2022-10-30T12:16:33;10.13;;;4.30;;
43857;SDS011;29507;51.284;5.758;2022-10-30T12:18:38;13.45;;;3.33;;
43857;SDS011;29507;51.284;5.758;2022-10-30T12:21:04;9.77;;;3.85;;
43857;SDS011;29507;51.284;5.758;2022-10-30T12:23:30;12.70;;;3.13;;
43857;SDS011;29507;51.284;5.758;2022-10-30T12:25:58;8.05;;;3.28;;
43857;SDS011;29507;51.284;5.758;2022-10-30T12:28:33;10.18;;;2.90;;
43857;SDS011;29507;51.284;5.758;2022-10-30T12:31:04;12.93;;;3.28;;
43857;SDS011;29507;51.284;5.758;2022-10-30T12:36:21;7.90;;;2.95;;
43857;SDS011;29507;51.284;5.758;2022-10-30T12:41:22;8.38;;;2.60;;
43857;SDS011;29507;51.284;5.758;2022-10-30T12:43:54;5.53;;;2.60;;
43857;SDS011;29507;51.284;5.758;2022-10-30T12:51:58;12.20;;;3.25;;
43857;SDS011;29507;51.284;5.758;2022-10-30T12:55:12;11.63;;;3.00;;
43857;SDS011;29507;51.284;5.758;2022-10-30T12:57:12;5.70;;;2.65;;
43857;SDS011;29507;51.284;5.758;2022-10-30T13:05:59;8.55;;;2.53;;
43857;SDS011;29507;51.284;5.758;2022-10-30T13:13:34;15.18;;;2.85;;
43857;SDS011;29507;51.284;5.758;2022-10-30T13:16:06;8.68;;;2.88;;
43857;SDS011;29507;51.284;5.758;2022-10-30T13:18:55;8.90;;;3.28;;
43857;SDS011;29507;51.284;5.758;2022-10-30T13:21:36;9.02;;;2.72;;
43857;SDS011;29507;51.284;5.758;2022-10-30T13:24:10;7.35;;;2.40;;
43857;SDS011;29507;51.284;5.758;2022-10-30T13:35:40;9.18;;;2.47;;
43857;SDS011;29507;51.284;5.758;2022-10-30T13:37:40;12.27;;;2.88;;
43857;SDS011;29507;51.284;5.758;2022-10-30T13:42:59;10.05;;;2.20;;
43857;SDS011;29507;51.284;5.758;2022-10-30T13:54:14;10.27;;;3.10;;
43857;SDS011;29507;51.284;5.758;2022-10-30T13:56:54;10.50;;;3.45;;
43857;SDS011;29507;51.284;5.758;2022-10-30T14:04:41;7.78;;;2.58;;
43857;SDS011;29507;51.284;5.758;2022-10-30T14:07:29;6.78;;;2.80;;
43857;SDS011;29507;51.284;5.758;2022-10-30T14:13:02;14.23;;;2.85;;
43857;SDS011;29507;51.284;5.758;2022-10-30T14:15:32;9.52;;;3.17;;
43857;SDS011;29507;51.284;5.758;2022-10-30T14:20:36;8.15;;;2.75;;
43857;SDS011;29507;51.284;5.758;2022-10-30T14:25:40;5.15;;;2.50;;
43857;SDS011;29507;51.284;5.758;2022-10-30T14:28:19;8.25;;;3.40;;
43857;SDS011;29507;51.284;5.758;2022-10-30T14:30:45;8.13;;;2.70;;
43857;SDS011;29507;51.284;5.758;2022-10-30T14:38:54;10.45;;;3.15;;
43857;SDS011;29507;51.284;5.758;2022-10-30T14:50:14;10.65;;;3.30;;
43857;SDS011;29507;51.284;5.758;2022-10-30T14:52:59;7.43;;;2.58;;
43857;SDS011;29507;51.284;5.758;2022-10-30T14:58:38;9.48;;;3.25;;
43857;SDS011;29507;51.284;5.758;2022-10-30T15:06:18;11.05;;;3.63;;
43857;SDS011;29507;51.284;5.758;2022-10-30T15:12:06;5.43;;;2.40;;
43857;SDS011;29507;51.284;5.758;2022-10-30T15:14:56;7.47;;;2.85;;
43857;SDS011;29507;51.284;5.758;2022-10-30T15:17:28;8.27;;;3.28;;
43857;SDS011;29507;51.284;5.758;2022-10-30T15:19:57;9.02;;;3.13;;
43857;SDS011;29507;51.284;5.758;2022-10-30T15:22:25;16.30;;;3.50;;
43857;SDS011;29507;51.284;5.758;2022-10-30T15:24:54;12.85;;;3.30;;
43857;SDS011;29507;51.284;5.758;2022-10-30T15:27:20;13.65;;;3.97;;
43857;SDS011;29507;51.284;5.758;2022-10-30T15:29:50;7.82;;;3.22;;
43857;SDS011;29507;51.284;5.758;2022-10-30T15:37:27;8.27;;;3.85;;
43857;SDS011;29507;51.284;5.758;2022-10-30T15:40:07;11.05;;;2.90;;
43857;SDS011;29507;51.284;5.758;2022-10-30T15:42:34;7.03;;;2.65;;
43857;SDS011;29507;51.284;5.758;2022-10-30T15:45:01;9.80;;;3.15;;
43857;SDS011;29507;51.284;5.758;2022-10-30T15:47:27;11.57;;;3.20;;
43857;SDS011;29507;51.284;5.758;2022-10-30T15:49:53;11.93;;;5.03;;
43857;SDS011;29507;51.284;5.758;2022-10-30T15:52:20;11.57;;;3.83;;
43857;SDS011;29507;51.284;5.758;2022-10-30T15:55:02;8.35;;;3.53;;
43857;SDS011;29507;51.284;5.758;2022-10-30T15:57:31;9.20;;;3.30;;
43857;SDS011;29507;51.284;5.758;2022-10-30T16:00:02;9.00;;;2.90;;
43857;SDS011;29507;51.284;5.758;2022-10-30T16:02:31;10.18;;;3.17;;
43857;SDS011;29507;51.284;5.758;2022-10-30T16:04:57;8.00;;;2.92;;
43857;SDS011;29507;51.284;5.758;2022-10-30T16:07:24;9.88;;;3.78;;
43857;SDS011;29507;51.284;5.758;2022-10-30T16:12:18;13.57;;;3.78;;
43857;SDS011;29507;51.284;5.758;2022-10-30T16:14:45;9.88;;;4.00;;
43857;SDS011;29507;51.284;5.758;2022-10-30T16:17:11;13.02;;;3.72;;
43857;SDS011;29507;51.284;5.758;2022-10-30T16:19:42;18.65;;;3.33;;
43857;SDS011;29507;51.284;5.758;2022-10-30T16:22:12;11.27;;;3.95;;
43857;SDS011;29507;51.284;5.758;2022-10-30T16:24:43;9.80;;;3.95;;
43857;SDS011;29507;51.284;5.758;2022-10-30T16:27:17;14.75;;;4.53;;
43857;SDS011;29507;51.284;5.758;2022-10-30T16:29:44;10.55;;;4.00;;
43857;SDS011;29507;51.284;5.758;2022-10-30T16:32:15;9.73;;;4.03;;
43857;SDS011;29507;51.284;5.758;2022-10-30T16:34:43;10.45;;;4.05;;
43857;SDS011;29507;51.284;5.758;2022-10-30T16:37:16;13.90;;;4.00;;
43857;SDS011;29507;51.284;5.758;2022-10-30T16:39:48;9.68;;;3.72;;
43857;SDS011;29507;51.284;5.758;2022-10-30T16:42:24;12.07;;;4.22;;
43857;SDS011;29507;51.284;5.758;2022-10-30T16:44:52;7.63;;;3.22;;
43857;SDS011;29507;51.284;5.758;2022-10-30T16:47:34;6.25;;;3.38;;
43857;SDS011;29507;51.284;5.758;2022-10-30T16:50:02;12.85;;;3.97;;
43857;SDS011;29507;51.284;5.758;2022-10-30T16:52:31;8.57;;;3.78;;
43857;SDS011;29507;51.284;5.758;2022-10-30T16:55:08;12.68;;;3.70;;
43857;SDS011;29507;51.284;5.758;2022-10-30T16:57:42;11.65;;;3.80;;
43857;SDS011;29507;51.284;5.758;2022-10-30T17:00:20;13.30;;;3.92;;
43857;SDS011;29507;51.284;5.758;2022-10-30T17:02:48;11.70;;;4.38;;
43857;SDS011;29507;51.284;5.758;2022-10-30T17:07:55;9.82;;;4.13;;
43857;SDS011;29507;51.284;5.758;2022-10-30T17:13:25;9.82;;;4.57;;
43857;SDS011;29507;51.284;5.758;2022-10-30T17:16:17;14.73;;;4.88;;
43857;SDS011;29507;51.284;5.758;2022-10-30T17:18:46;8.43;;;3.63;;
43857;SDS011;29507;51.284;5.758;2022-10-30T17:21:22;13.38;;;4.45;;
43857;SDS011;29507;51.284;5.758;2022-10-30T17:23:55;9.70;;;3.88;;
43857;SDS011;29507;51.284;5.758;2022-10-30T17:26:22;11.35;;;4.57;;
43857;SDS011;29507;51.284;5.758;2022-10-30T17:28:49;13.05;;;4.75;;
43857;SDS011;29507;51.284;5.758;2022-10-30T17:34:02;13.35;;;4.93;;
43857;SDS011;29507;51.284;5.758;2022-10-30T17:36:34;12.65;;;3.97;;
43857;SDS011;29507;51.284;5.758;2022-10-30T17:39:00;10.20;;;3.83;;
43857;SDS011;29507;51.284;5.758;2022-10-30T17:41:25;11.88;;;4.95;;
43857;SDS011;29507;51.284;5.758;2022-10-30T17:43:53;10.77;;;4.10;;
43857;SDS011;29507;51.284;5.758;2022-10-30T17:46:20;10.70;;;4.63;;
43857;SDS011;29507;51.284;5.758;2022-10-30T17:48:46;11.73;;;4.35;;